sensor_id;sensor_type;location;lat;lon;timestamp;P1;durP1;ratioP1;P2;durP2;ratioP2
7255;SDS011;3669;49.200;9.242;2023-07-20T00:01:50;27.42;;;25.95;;
7255;SDS011;3669;49.200;9.242;2023-07-20T00:04:17;8.25;;;7.82;;
7255;SDS011;3669;49.200;9.242;2023-07-20T00:06:43;3.38;;;3.13;;
7255;SDS011;3669;49.200;9.242;2023-07-20T00:09:11;2.30;;;2.10;;
7255;SDS011;3669;49.200;9.242;2023-07-20T00:11:38;2.10;;;1.90;;
7255;SDS011;3669;49.200;9.242;2023-07-20T00:14:05;2.05;;;1.88;;
7255;SDS011;3669;49.200;9.242;2023-07-20T00:16:32;2.75;;;2.00;;
7255;SDS011;3669;49.200;9.242;2023-07-20T00:18:59;3.38;;;2.40;;
7255;SDS011;3669;49.200;9.242;2023-07-20T00:21:26;2.22;;;2.03;;
7255;SDS011;3669;49.200;9.242;2023-07-20T00:23:53;2.45;;;1.90;;
7255;SDS011;3669;49.200;9.242;2023-07-20T00:26:20;2.45;;;2.00;;
7255;SDS011;3669;49.200;9.242;2023-07-20T00:28:49;3.35;;;2.10;;
7255;SDS011;3669;49.200;9.242;2023-07-20T00:31:17;3.20;;;2.05;;
7255;SDS011;3669;49.200;9.242;2023-07-20T00:33:44;2.20;;;1.98;;
7255;SDS011;3669;49.200;9.242;2023-07-20T00:36:11;2.50;;;1.95;;
7255;SDS011;3669;49.200;9.242;2023-07-20T00:38:38;3.25;;;2.40;;
7255;SDS011;3669;49.200;9.242;2023-07-20T00:41:06;3.17;;;2.22;;
7255;SDS011;3669;49.200;9.242;2023-07-20T00:43:33;2.42;;;2.00;;
7255;SDS011;3669;49.200;9.242;2023-07-20T00:46:00;2.40;;;2.20;;
7255;SDS011;3669;49.200;9.242;2023-07-20T00:48:29;3.35;;;2.20;;
7255;SDS011;3669;49.200;9.242;2023-07-20T00:50:56;2.38;;;2.17;;
7255;SDS011;3669;49.200;9.242;2023-07-20T00:53:24;2.22;;;2.03;;
7255;SDS011;3669;49.200;9.242;2023-07-20T00:55:51;2.70;;;2.22;;
7255;SDS011;3669;49.200;9.242;2023-07-20T00:58:18;2.80;;;2.33;;
7255;SDS011;3669;49.200;9.242;2023-07-20T01:00:45;3.15;;;2.42;;
7255;SDS011;3669;49.200;9.242;2023-07-20T01:03:13;2.53;;;2.30;;
7255;SDS011;3669;49.200;9.242;2023-07-20T01:05:42;2.70;;;2.20;;
7255;SDS011;3669;49.200;9.242;2023-07-20T01:11:10;3.03;;;2.53;;
7255;SDS011;3669;49.200;9.242;2023-07-20T01:13:41;2.53;;;2.30;;
7255;SDS011;3669;49.200;9.242;2023-07-20T01:16:09;3.28;;;2.30;;
7255;SDS011;3669;49.200;9.242;2023-07-20T01:18:36;3.00;;;2.28;;
7255;SDS011;3669;49.200;9.242;2023-07-20T01:21:06;3.58;;;2.45;;
7255;SDS011;3669;49.200;9.242;2023-07-20T01:29:22;28.85;;;27.20;;
7255;SDS011;3669;49.200;9.242;2023-07-20T01:31:51;26.02;;;24.73;;
7255;SDS011;3669;49.200;9.242;2023-07-20T01:34:19;23.65;;;22.48;;
7255;SDS011;3669;49.200;9.242;2023-07-20T01:36:48;26.13;;;24.98;;
7255;SDS011;3669;49.200;9.242;2023-07-20T01:39:16;25.70;;;24.48;;
7255;SDS011;3669;49.200;9.242;2023-07-20T01:41:43;19.13;;;17.95;;
7255;SDS011;3669;49.200;9.242;2023-07-20T01:44:12;13.30;;;12.60;;
7255;SDS011;3669;49.200;9.242;2023-07-20T01:46:39;9.25;;;8.77;;
7255;SDS011;3669;49.200;9.242;2023-07-20T01:49:05;2.22;;;1.98;;
7255;SDS011;3669;49.200;9.242;2023-07-20T01:51:32;2.83;;;1.83;;
7255;SDS011;3669;49.200;9.242;2023-07-20T01:53:59;2.35;;;2.00;;
7255;SDS011;3669;49.200;9.242;2023-07-20T01:56:26;2.65;;;1.85;;
7255;SDS011;3669;49.200;9.242;2023-07-20T01:58:54;2.72;;;2.15;;
7255;SDS011;3669;49.200;9.242;2023-07-20T02:01:23;2.58;;;1.95;;
7255;SDS011;3669;49.200;9.242;2023-07-20T02:03:50;2.83;;;1.98;;
7255;SDS011;3669;49.200;9.242;2023-07-20T02:06:17;2.45;;;2.10;;
7255;SDS011;3669;49.200;9.242;2023-07-20T02:08:44;2.35;;;2.10;;
7255;SDS011;3669;49.200;9.242;2023-07-20T02:11:11;2.60;;;1.90;;
7255;SDS011;3669;49.200;9.242;2023-07-20T02:13:38;2.17;;;1.98;;
7255;SDS011;3669;49.200;9.242;2023-07-20T02:16:05;2.13;;;1.90;;
7255;SDS011;3669;49.200;9.242;2023-07-20T02:18:33;2.17;;;1.90;;
7255;SDS011;3669;49.200;9.242;2023-07-20T02:21:01;2.20;;;2.00;;
7255;SDS011;3669;49.200;9.242;2023-07-20T02:23:29;2.33;;;2.10;;
7255;SDS011;3669;49.200;9.242;2023-07-20T02:25:56;2.33;;;1.98;;
7255;SDS011;3669;49.200;9.242;2023-07-20T02:28:23;2.78;;;1.90;;
7255;SDS011;3669;49.200;9.242;2023-07-20T02:30:50;2.35;;;2.13;;
7255;SDS011;3669;49.200;9.242;2023-07-20T02:33:17;2.20;;;1.80;;
7255;SDS011;3669;49.200;9.242;2023-07-20T02:35:45;2.63;;;2.00;;
7255;SDS011;3669;49.200;9.242;2023-07-20T02:38:12;2.45;;;1.92;;
7255;SDS011;3669;49.200;9.242;2023-07-20T02:40:39;3.13;;;2.10;;
7255;SDS011;3669;49.200;9.242;2023-07-20T02:43:07;2.80;;;2.20;;
7255;SDS011;3669;49.200;9.242;2023-07-20T02:45:35;2.33;;;1.98;;
7255;SDS011;3669;49.200;9.242;2023-07-20T02:48:02;2.65;;;2.08;;
7255;SDS011;3669;49.200;9.242;2023-07-20T02:50:29;2.40;;;2.20;;
7255;SDS011;3669;49.200;9.242;2023-07-20T02:52:56;3.45;;;2.10;;
7255;SDS011;3669;49.200;9.242;2023-07-20T02:55:23;2.28;;;2.08;;
7255;SDS011;3669;49.200;9.242;2023-07-20T02:57:50;3.10;;;2.00;;
7255;SDS011;3669;49.200;9.242;2023-07-20T03:00:17;2.10;;;1.90;;
7255;SDS011;3669;49.200;9.242;2023-07-20T03:02:45;1.98;;;1.77;;
7255;SDS011;3669;49.200;9.242;2023-07-20T03:05:22;3.00;;;2.10;;
7255;SDS011;3669;49.200;9.242;2023-07-20T03:07:54;2.22;;;1.80;;
7255;SDS011;3669;49.200;9.242;2023-07-20T03:10:21;2.45;;;2.10;;
7255;SDS011;3669;49.200;9.242;2023-07-20T03:12:48;2.30;;;1.95;;
7255;SDS011;3669;49.200;9.242;2023-07-20T03:15:15;2.67;;;2.10;;
7255;SDS011;3669;49.200;9.242;2023-07-20T03:17:45;2.95;;;2.10;;
7255;SDS011;3669;49.200;9.242;2023-07-20T03:20:12;2.35;;;2.15;;
7255;SDS011;3669;49.200;9.242;2023-07-20T03:22:39;3.00;;;2.10;;
7255;SDS011;3669;49.200;9.242;2023-07-20T03:25:06;2.90;;;2.17;;
7255;SDS011;3669;49.200;9.242;2023-07-20T03:27:33;2.65;;;2.08;;
7255;SDS011;3669;49.200;9.242;2023-07-20T03:30:01;2.50;;;2.22;;
7255;SDS011;3669;49.200;9.242;2023-07-20T03:32:28;4.03;;;2.42;;
7255;SDS011;3669;49.200;9.242;2023-07-20T03:34:55;2.28;;;2.08;;
7255;SDS011;3669;49.200;9.242;2023-07-20T03:37:22;2.25;;;2.05;;
7255;SDS011;3669;49.200;9.242;2023-07-20T03:39:49;2.58;;;2.20;;
7255;SDS011;3669;49.200;9.242;2023-07-20T03:42:16;2.28;;;2.03;;
7255;SDS011;3669;49.200;9.242;2023-07-20T03:44:43;2.10;;;1.90;;
7255;SDS011;3669;49.200;9.242;2023-07-20T03:47:10;2.42;;;2.22;;
7255;SDS011;3669;49.200;9.242;2023-07-20T03:49:37;2.45;;;2.10;;
7255;SDS011;3669;49.200;9.242;2023-07-20T03:52:04;3.58;;;2.67;;
7255;SDS011;3669;49.200;9.242;2023-07-20T03:54:31;11.50;;;10.80;;
7255;SDS011;3669;49.200;9.242;2023-07-20T03:56:58;19.92;;;18.88;;
7255;SDS011;3669;49.200;9.242;2023-07-20T03:59:26;19.52;;;18.58;;
7255;SDS011;3669;49.200;9.242;2023-07-20T04:01:53;20.50;;;19.45;;
7255;SDS011;3669;49.200;9.242;2023-07-20T04:04:20;22.85;;;21.65;;
7255;SDS011;3669;49.200;9.242;2023-07-20T04:06:47;26.83;;;25.35;;
7255;SDS011;3669;49.200;9.242;2023-07-20T04:09:14;4.68;;;4.22;;
7255;SDS011;3669;49.200;9.242;2023-07-20T04:11:40;3.08;;;2.28;;
7255;SDS011;3669;49.200;9.242;2023-07-20T04:14:07;3.53;;;2.22;;
7255;SDS011;3669;49.200;9.242;2023-07-20T04:16:34;3.33;;;2.40;;
7255;SDS011;3669;49.200;9.242;2023-07-20T04:19:02;2.55;;;2.25;;
7255;SDS011;3669;49.200;9.242;2023-07-20T04:21:29;2.28;;;2.08;;
7255;SDS011;3669;49.200;9.242;2023-07-20T04:23:56;2.88;;;2.28;;
7255;SDS011;3669;49.200;9.242;2023-07-20T04:26:24;2.78;;;2.10;;
7255;SDS011;3669;49.200;9.242;2023-07-20T04:28:51;2.40;;;2.20;;
7255;SDS011;3669;49.200;9.242;2023-07-20T04:31:18;2.95;;;2.30;;
7255;SDS011;3669;49.200;9.242;2023-07-20T04:33:45;2.50;;;2.30;;
7255;SDS011;3669;49.200;9.242;2023-07-20T04:36:13;2.88;;;2.20;;
7255;SDS011;3669;49.200;9.242;2023-07-20T04:38:42;2.65;;;2.13;;
7255;SDS011;3669;49.200;9.242;2023-07-20T04:41:09;2.50;;;2.30;;
7255;SDS011;3669;49.200;9.242;2023-07-20T04:43:40;2.65;;;2.42;;
7255;SDS011;3669;49.200;9.242;2023-07-20T04:46:09;2.58;;;2.08;;
7255;SDS011;3669;49.200;9.242;2023-07-20T04:48:36;2.80;;;2.22;;
7255;SDS011;3669;49.200;9.242;2023-07-20T04:51:03;2.20;;;2.00;;
7255;SDS011;3669;49.200;9.242;2023-07-20T04:53:30;2.42;;;2.22;;
7255;SDS011;3669;49.200;9.242;2023-07-20T04:55:57;2.30;;;2.10;;
7255;SDS011;3669;49.200;9.242;2023-07-20T04:58:24;2.67;;;2.30;;
7255;SDS011;3669;49.200;9.242;2023-07-20T05:00:51;2.40;;;2.20;;
7255;SDS011;3669;49.200;9.242;2023-07-20T05:03:19;2.45;;;2.25;;
7255;SDS011;3669;49.200;9.242;2023-07-20T05:05:46;2.30;;;2.10;;
7255;SDS011;3669;49.200;9.242;2023-07-20T05:08:17;2.92;;;2.22;;
7255;SDS011;3669;49.200;9.242;2023-07-20T05:10:44;3.13;;;2.10;;
7255;SDS011;3669;49.200;9.242;2023-07-20T05:13:11;3.45;;;2.50;;
7255;SDS011;3669;49.200;9.242;2023-07-20T05:15:38;2.60;;;2.40;;
7255;SDS011;3669;49.200;9.242;2023-07-20T05:18:05;2.88;;;2.63;;
7255;SDS011;3669;49.200;9.242;2023-07-20T05:20:34;2.65;;;2.45;;
7255;SDS011;3669;49.200;9.242;2023-07-20T05:23:02;11.98;;;11.30;;
7255;SDS011;3669;49.200;9.242;2023-07-20T05:25:30;2.95;;;2.65;;
7255;SDS011;3669;49.200;9.242;2023-07-20T05:27:57;3.00;;;2.70;;
7255;SDS011;3669;49.200;9.242;2023-07-20T05:30:24;2.88;;;2.53;;
7255;SDS011;3669;49.200;9.242;2023-07-20T05:32:51;2.78;;;2.40;;
7255;SDS011;3669;49.200;9.242;2023-07-20T05:35:20;3.05;;;2.55;;
7255;SDS011;3669;49.200;9.242;2023-07-20T05:37:48;2.83;;;2.63;;
7255;SDS011;3669;49.200;9.242;2023-07-20T05:40:15;3.63;;;2.90;;
7255;SDS011;3669;49.200;9.242;2023-07-20T05:42:47;2.63;;;2.40;;
7255;SDS011;3669;49.200;9.242;2023-07-20T05:45:17;2.92;;;2.50;;
7255;SDS011;3669;49.200;9.242;2023-07-20T05:47:44;4.28;;;2.50;;
7255;SDS011;3669;49.200;9.242;2023-07-20T05:50:12;2.83;;;2.50;;
7255;SDS011;3669;49.200;9.242;2023-07-20T05:52:39;3.15;;;2.58;;
7255;SDS011;3669;49.200;9.242;2023-07-20T05:55:06;3.00;;;2.70;;
7255;SDS011;3669;49.200;9.242;2023-07-20T05:57:33;2.95;;;2.63;;
7255;SDS011;3669;49.200;9.242;2023-07-20T06:00:00;3.28;;;2.72;;
7255;SDS011;3669;49.200;9.242;2023-07-20T06:02:28;4.60;;;2.47;;
7255;SDS011;3669;49.200;9.242;2023-07-20T06:04:55;3.97;;;2.55;;
7255;SDS011;3669;49.200;9.242;2023-07-20T06:07:22;3.90;;;3.53;;
7255;SDS011;3669;49.200;9.242;2023-07-20T06:09:49;12.27;;;11.38;;
7255;SDS011;3669;49.200;9.242;2023-07-20T06:12:16;18.55;;;17.60;;
7255;SDS011;3669;49.200;9.242;2023-07-20T06:14:42;29.42;;;27.83;;
7255;SDS011;3669;49.200;9.242;2023-07-20T06:17:09;19.98;;;18.98;;
7255;SDS011;3669;49.200;9.242;2023-07-20T06:19:36;20.73;;;19.65;;
7255;SDS011;3669;49.200;9.242;2023-07-20T06:22:03;17.60;;;16.65;;
7255;SDS011;3669;49.200;9.242;2023-07-20T06:24:30;9.75;;;9.18;;
7255;SDS011;3669;49.200;9.242;2023-07-20T06:26:57;6.30;;;4.40;;
7255;SDS011;3669;49.200;9.242;2023-07-20T06:29:24;3.75;;;2.53;;
7255;SDS011;3669;49.200;9.242;2023-07-20T06:31:51;4.03;;;2.30;;
7255;SDS011;3669;49.200;9.242;2023-07-20T06:34:18;3.95;;;2.58;;
7255;SDS011;3669;49.200;9.242;2023-07-20T06:36:45;3.00;;;2.50;;
7255;SDS011;3669;49.200;9.242;2023-07-20T06:39:12;4.13;;;2.60;;
7255;SDS011;3669;49.200;9.242;2023-07-20T06:41:40;2.40;;;2.17;;
7255;SDS011;3669;49.200;9.242;2023-07-20T06:44:07;3.15;;;2.53;;
7255;SDS011;3669;49.200;9.242;2023-07-20T06:46:34;2.58;;;2.38;;
7255;SDS011;3669;49.200;9.242;2023-07-20T06:49:01;5.25;;;2.75;;
7255;SDS011;3669;49.200;9.242;2023-07-20T06:51:28;2.72;;;2.50;;
7255;SDS011;3669;49.200;9.242;2023-07-20T06:53:55;2.42;;;2.22;;
7255;SDS011;3669;49.200;9.242;2023-07-20T06:56:22;2.70;;;2.25;;
7255;SDS011;3669;49.200;9.242;2023-07-20T06:58:49;3.03;;;2.33;;
7255;SDS011;3669;49.200;9.242;2023-07-20T07:01:18;2.47;;;2.20;;
7255;SDS011;3669;49.200;9.242;2023-07-20T07:03:46;2.72;;;2.28;;
7255;SDS011;3669;49.200;9.242;2023-07-20T07:06:13;2.80;;;2.33;;
7255;SDS011;3669;49.200;9.242;2023-07-20T07:08:40;2.60;;;2.40;;
7255;SDS011;3669;49.200;9.242;2023-07-20T07:11:10;3.22;;;2.20;;
7255;SDS011;3669;49.200;9.242;2023-07-20T07:13:37;2.78;;;2.15;;
7255;SDS011;3669;49.200;9.242;2023-07-20T07:16:04;2.28;;;1.92;;
7255;SDS011;3669;49.200;9.242;2023-07-20T07:18:32;2.97;;;2.33;;
7255;SDS011;3669;49.200;9.242;2023-07-20T07:21:02;2.10;;;1.90;;
7255;SDS011;3669;49.200;9.242;2023-07-20T07:23:29;2.28;;;2.05;;
7255;SDS011;3669;49.200;9.242;2023-07-20T07:25:56;2.75;;;1.98;;
7255;SDS011;3669;49.200;9.242;2023-07-20T07:28:24;3.60;;;2.25;;
7255;SDS011;3669;49.200;9.242;2023-07-20T07:30:51;2.25;;;2.03;;
7255;SDS011;3669;49.200;9.242;2023-07-20T07:33:18;3.40;;;2.22;;
7255;SDS011;3669;49.200;9.242;2023-07-20T07:35:45;2.33;;;2.03;;
7255;SDS011;3669;49.200;9.242;2023-07-20T07:38:12;2.22;;;2.03;;
7255;SDS011;3669;49.200;9.242;2023-07-20T07:40:39;2.38;;;2.03;;
7255;SDS011;3669;49.200;9.242;2023-07-20T07:43:06;4.65;;;2.15;;
7255;SDS011;3669;49.200;9.242;2023-07-20T07:45:35;2.17;;;1.95;;
7255;SDS011;3669;49.200;9.242;2023-07-20T07:48:06;4.05;;;2.38;;
7255;SDS011;3669;49.200;9.242;2023-07-20T07:50:33;2.20;;;2.00;;
7255;SDS011;3669;49.200;9.242;2023-07-20T07:53:00;3.20;;;2.05;;
7255;SDS011;3669;49.200;9.242;2023-07-20T07:55:27;3.38;;;2.03;;
7255;SDS011;3669;49.200;9.242;2023-07-20T07:57:54;3.15;;;2.00;;
7255;SDS011;3669;49.200;9.242;2023-07-20T08:00:21;2.13;;;1.92;;
7255;SDS011;3669;49.200;9.242;2023-07-20T08:02:50;2.90;;;2.15;;
7255;SDS011;3669;49.200;9.242;2023-07-20T08:05:17;2.75;;;2.33;;
7255;SDS011;3669;49.200;9.242;2023-07-20T08:07:44;2.33;;;1.90;;
7255;SDS011;3669;49.200;9.242;2023-07-20T08:10:11;2.63;;;2.00;;
7255;SDS011;3669;49.200;9.242;2023-07-20T08:12:38;2.53;;;2.30;;
7255;SDS011;3669;49.200;9.242;2023-07-20T08:15:06;2.40;;;1.92;;
7255;SDS011;3669;49.200;9.242;2023-07-20T08:17:33;2.88;;;2.00;;
7255;SDS011;3669;49.200;9.242;2023-07-20T08:20:00;2.28;;;2.00;;
7255;SDS011;3669;49.200;9.242;2023-07-20T08:22:27;3.05;;;2.20;;
7255;SDS011;3669;49.200;9.242;2023-07-20T08:24:54;10.10;;;9.60;;
7255;SDS011;3669;49.200;9.242;2023-07-20T08:27:21;9.82;;;9.27;;
7255;SDS011;3669;49.200;9.242;2023-07-20T08:29:48;21.70;;;20.52;;
7255;SDS011;3669;49.200;9.242;2023-07-20T08:32:15;21.35;;;20.35;;
7255;SDS011;3669;49.200;9.242;2023-07-20T08:34:42;19.58;;;18.60;;
7255;SDS011;3669;49.200;9.242;2023-07-20T08:37:09;18.15;;;17.27;;
7255;SDS011;3669;49.200;9.242;2023-07-20T08:39:35;6.25;;;5.85;;
7255;SDS011;3669;49.200;9.242;2023-07-20T08:42:02;2.40;;;2.20;;
7255;SDS011;3669;49.200;9.242;2023-07-20T08:44:34;2.47;;;1.98;;
7255;SDS011;3669;49.200;9.242;2023-07-20T08:47:02;2.00;;;1.80;;
7255;SDS011;3669;49.200;9.242;2023-07-20T08:49:31;2.08;;;1.88;;
7255;SDS011;3669;49.200;9.242;2023-07-20T08:51:58;3.70;;;2.22;;
7255;SDS011;3669;49.200;9.242;2023-07-20T08:54:32;2.58;;;2.08;;
7255;SDS011;3669;49.200;9.242;2023-07-20T08:57:01;2.38;;;2.17;;
7255;SDS011;3669;49.200;9.242;2023-07-20T08:59:28;3.33;;;2.33;;
7255;SDS011;3669;49.200;9.242;2023-07-20T09:01:56;2.15;;;1.95;;
7255;SDS011;3669;49.200;9.242;2023-07-20T09:04:23;2.85;;;2.25;;
7255;SDS011;3669;49.200;9.242;2023-07-20T09:06:50;2.22;;;2.00;;
7255;SDS011;3669;49.200;9.242;2023-07-20T09:09:17;2.97;;;1.85;;
7255;SDS011;3669;49.200;9.242;2023-07-20T09:11:48;2.30;;;1.92;;
7255;SDS011;3669;49.200;9.242;2023-07-20T09:14:16;2.72;;;2.30;;
7255;SDS011;3669;49.200;9.242;2023-07-20T09:16:55;2.92;;;1.83;;
7255;SDS011;3669;49.200;9.242;2023-07-20T09:19:23;3.95;;;2.30;;
7255;SDS011;3669;49.200;9.242;2023-07-20T09:21:50;2.10;;;1.80;;
7255;SDS011;3669;49.200;9.242;2023-07-20T09:24:19;3.03;;;2.03;;
7255;SDS011;3669;49.200;9.242;2023-07-20T09:26:51;2.65;;;2.13;;
7255;SDS011;3669;49.200;9.242;2023-07-20T09:29:18;2.45;;;2.25;;
7255;SDS011;3669;49.200;9.242;2023-07-20T09:32:01;2.33;;;2.00;;
7255;SDS011;3669;49.200;9.242;2023-07-20T09:34:29;2.60;;;2.28;;
7255;SDS011;3669;49.200;9.242;2023-07-20T09:36:59;2.15;;;1.95;;
7255;SDS011;3669;49.200;9.242;2023-07-20T09:39:27;2.65;;;2.00;;
7255;SDS011;3669;49.200;9.242;2023-07-20T09:41:54;2.45;;;2.20;;
7255;SDS011;3669;49.200;9.242;2023-07-20T09:44:21;2.13;;;1.70;;
7255;SDS011;3669;49.200;9.242;2023-07-20T09:46:48;3.28;;;2.00;;
7255;SDS011;3669;49.200;9.242;2023-07-20T09:49:20;2.47;;;1.60;;
7255;SDS011;3669;49.200;9.242;2023-07-20T09:51:47;2.13;;;1.90;;
7255;SDS011;3669;49.200;9.242;2023-07-20T09:54:14;2.17;;;1.98;;
7255;SDS011;3669;49.200;9.242;2023-07-20T09:56:41;2.08;;;1.88;;
7255;SDS011;3669;49.200;9.242;2023-07-20T09:59:09;2.88;;;2.00;;
7255;SDS011;3669;49.200;9.242;2023-07-20T10:01:36;2.15;;;1.95;;
7255;SDS011;3669;49.200;9.242;2023-07-20T10:04:06;3.35;;;1.77;;
7255;SDS011;3669;49.200;9.242;2023-07-20T10:06:35;3.13;;;1.88;;
7255;SDS011;3669;49.200;9.242;2023-07-20T10:09:07;2.58;;;1.83;;
7255;SDS011;3669;49.200;9.242;2023-07-20T10:11:35;2.30;;;2.10;;
7255;SDS011;3669;49.200;9.242;2023-07-20T10:14:05;2.40;;;1.83;;
7255;SDS011;3669;49.200;9.242;2023-07-20T10:16:39;2.10;;;1.90;;
7255;SDS011;3669;49.200;9.242;2023-07-20T10:19:31;1.95;;;1.60;;
7255;SDS011;3669;49.200;9.242;2023-07-20T10:22:03;1.95;;;1.75;;
7255;SDS011;3669;49.200;9.242;2023-07-20T10:24:31;1.70;;;1.52;;
7255;SDS011;3669;49.200;9.242;2023-07-20T10:26:58;3.30;;;1.90;;
7255;SDS011;3669;49.200;9.242;2023-07-20T10:29:25;2.60;;;1.83;;
7255;SDS011;3669;49.200;9.242;2023-07-20T10:31:54;2.53;;;2.10;;
7255;SDS011;3669;49.200;9.242;2023-07-20T10:34:21;2.42;;;1.80;;
7255;SDS011;3669;49.200;9.242;2023-07-20T10:36:49;8.18;;;7.75;;
7255;SDS011;3669;49.200;9.242;2023-07-20T10:39:32;14.75;;;13.93;;
7255;SDS011;3669;49.200;9.242;2023-07-20T10:42:05;3.10;;;2.88;;
7255;SDS011;3669;49.200;9.242;2023-07-20T10:44:33;2.90;;;1.70;;
7255;SDS011;3669;49.200;9.242;2023-07-20T10:47:01;23.42;;;22.33;;
7255;SDS011;3669;49.200;9.242;2023-07-20T10:49:28;19.95;;;19.00;;
7255;SDS011;3669;49.200;9.242;2023-07-20T10:51:59;15.40;;;14.68;;
7255;SDS011;3669;49.200;9.242;2023-07-20T10:56:55;3.35;;;1.80;;
7255;SDS011;3669;49.200;9.242;2023-07-20T11:02:05;2.28;;;1.90;;
7255;SDS011;3669;49.200;9.242;2023-07-20T11:04:44;3.13;;;1.80;;
7255;SDS011;3669;49.200;9.242;2023-07-20T11:07:15;1.95;;;1.75;;
7255;SDS011;3669;49.200;9.242;2023-07-20T11:09:44;1.70;;;1.60;;
7255;SDS011;3669;49.200;9.242;2023-07-20T11:12:15;2.08;;;1.75;;
7255;SDS011;3669;49.200;9.242;2023-07-20T11:14:43;10.07;;;9.52;;
7255;SDS011;3669;49.200;9.242;2023-07-20T11:17:14;2.25;;;1.70;;
7255;SDS011;3669;49.200;9.242;2023-07-20T11:19:41;2.10;;;1.75;;
7255;SDS011;3669;49.200;9.242;2023-07-20T11:22:08;2.10;;;1.80;;
7255;SDS011;3669;49.200;9.242;2023-07-20T11:24:40;5.75;;;2.08;;
7255;SDS011;3669;49.200;9.242;2023-07-20T11:27:08;1.70;;;1.60;;
7255;SDS011;3669;49.200;9.242;2023-07-20T11:29:37;1.88;;;1.77;;
7255;SDS011;3669;49.200;9.242;2023-07-20T11:32:04;3.38;;;1.95;;
7255;SDS011;3669;49.200;9.242;2023-07-20T11:34:32;2.25;;;1.58;;
7255;SDS011;3669;49.200;9.242;2023-07-20T11:36:59;2.53;;;1.80;;
7255;SDS011;3669;49.200;9.242;2023-07-20T11:39:26;1.90;;;1.70;;
7255;SDS011;3669;49.200;9.242;2023-07-20T11:41:53;2.38;;;1.50;;
7255;SDS011;3669;49.200;9.242;2023-07-20T11:44:22;2.80;;;1.77;;
7255;SDS011;3669;49.200;9.242;2023-07-20T11:49:29;1.73;;;1.50;;
7255;SDS011;3669;49.200;9.242;2023-07-20T11:51:57;2.00;;;1.70;;
7255;SDS011;3669;49.200;9.242;2023-07-20T11:54:24;12.95;;;12.02;;
7255;SDS011;3669;49.200;9.242;2023-07-20T11:57:00;18.02;;;17.10;;
7255;SDS011;3669;49.200;9.242;2023-07-20T11:59:27;15.38;;;14.48;;
7255;SDS011;3669;49.200;9.242;2023-07-20T12:01:54;17.80;;;17.00;;
7255;SDS011;3669;49.200;9.242;2023-07-20T12:04:24;19.85;;;18.85;;
7255;SDS011;3669;49.200;9.242;2023-07-20T12:06:52;17.00;;;16.30;;
7255;SDS011;3669;49.200;9.242;2023-07-20T12:09:20;20.27;;;19.27;;
7255;SDS011;3669;49.200;9.242;2023-07-20T12:11:48;5.40;;;5.07;;
7255;SDS011;3669;49.200;9.242;2023-07-20T12:14:15;2.78;;;2.50;;
7255;SDS011;3669;49.200;9.242;2023-07-20T12:16:42;2.17;;;1.50;;
7255;SDS011;3669;49.200;9.242;2023-07-20T12:19:10;2.03;;;1.50;;
7255;SDS011;3669;49.200;9.242;2023-07-20T12:21:39;3.75;;;1.50;;
7255;SDS011;3669;49.200;9.242;2023-07-20T12:24:07;1.80;;;1.55;;
7255;SDS011;3669;49.200;9.242;2023-07-20T12:26:35;1.63;;;1.48;;
7255;SDS011;3669;49.200;9.242;2023-07-20T12:29:02;1.60;;;1.48;;
7255;SDS011;3669;49.200;9.242;2023-07-20T12:31:33;1.98;;;1.77;;
7255;SDS011;3669;49.200;9.242;2023-07-20T12:34:01;1.70;;;1.60;;
7255;SDS011;3669;49.200;9.242;2023-07-20T12:36:28;1.90;;;1.67;;
7255;SDS011;3669;49.200;9.242;2023-07-20T12:38:56;1.55;;;1.45;;
7255;SDS011;3669;49.200;9.242;2023-07-20T12:41:24;2.15;;;1.58;;
7255;SDS011;3669;49.200;9.242;2023-07-20T12:43:51;2.13;;;1.30;;
7255;SDS011;3669;49.200;9.242;2023-07-20T12:46:19;2.03;;;1.70;;
7255;SDS011;3669;49.200;9.242;2023-07-20T12:48:46;2.70;;;1.70;;
7255;SDS011;3669;49.200;9.242;2023-07-20T12:51:13;1.88;;;1.60;;
7255;SDS011;3669;49.200;9.242;2023-07-20T12:53:40;1.73;;;1.60;;
7255;SDS011;3669;49.200;9.242;2023-07-20T12:56:07;1.83;;;1.60;;
7255;SDS011;3669;49.200;9.242;2023-07-20T12:58:34;2.00;;;1.60;;
7255;SDS011;3669;49.200;9.242;2023-07-20T13:01:02;1.98;;;1.70;;
7255;SDS011;3669;49.200;9.242;2023-07-20T13:03:29;1.90;;;1.70;;
7255;SDS011;3669;49.200;9.242;2023-07-20T13:05:56;2.03;;;1.70;;
7255;SDS011;3669;49.200;9.242;2023-07-20T13:08:24;2.03;;;1.58;;
7255;SDS011;3669;49.200;9.242;2023-07-20T13:10:52;2.42;;;1.48;;
7255;SDS011;3669;49.200;9.242;2023-07-20T13:13:19;1.75;;;1.60;;
7255;SDS011;3669;49.200;9.242;2023-07-20T13:15:46;2.00;;;1.77;;
7255;SDS011;3669;49.200;9.242;2023-07-20T13:18:14;2.17;;;1.80;;
7255;SDS011;3669;49.200;9.242;2023-07-20T13:20:41;1.95;;;1.83;;
7255;SDS011;3669;49.200;9.242;2023-07-20T13:23:08;10.02;;;9.52;;
7255;SDS011;3669;49.200;9.242;2023-07-20T13:25:35;2.90;;;1.73;;
7255;SDS011;3669;49.200;9.242;2023-07-20T13:28:04;2.10;;;1.70;;
7255;SDS011;3669;49.200;9.242;2023-07-20T13:30:31;2.10;;;1.90;;
7255;SDS011;3669;49.200;9.242;2023-07-20T13:32:59;1.88;;;1.60;;
7255;SDS011;3669;49.200;9.242;2023-07-20T13:35:26;1.95;;;1.85;;
7255;SDS011;3669;49.200;9.242;2023-07-20T13:37:53;1.55;;;1.33;;
7255;SDS011;3669;49.200;9.242;2023-07-20T13:40:20;1.90;;;1.63;;
7255;SDS011;3669;49.200;9.242;2023-07-20T13:42:49;1.60;;;1.50;;
7255;SDS011;3669;49.200;9.242;2023-07-20T13:45:16;1.80;;;1.65;;
7255;SDS011;3669;49.200;9.242;2023-07-20T13:47:43;2.38;;;1.73;;
7255;SDS011;3669;49.200;9.242;2023-07-20T13:50:10;2.13;;;2.03;;
7255;SDS011;3669;49.200;9.242;2023-07-20T13:52:37;15.65;;;14.98;;
7255;SDS011;3669;49.200;9.242;2023-07-20T13:55:04;19.27;;;18.33;;
7255;SDS011;3669;49.200;9.242;2023-07-20T13:57:31;20.17;;;19.17;;
7255;SDS011;3669;49.200;9.242;2023-07-20T13:59:58;24.80;;;23.50;;
7255;SDS011;3669;49.200;9.242;2023-07-20T14:02:26;16.20;;;15.43;;
7255;SDS011;3669;49.200;9.242;2023-07-20T14:04:53;9.82;;;9.32;;
7255;SDS011;3669;49.200;9.242;2023-07-20T14:07:21;5.82;;;5.53;;
7255;SDS011;3669;49.200;9.242;2023-07-20T14:09:48;2.55;;;1.90;;
7255;SDS011;3669;49.200;9.242;2023-07-20T14:12:15;1.95;;;1.50;;
7255;SDS011;3669;49.200;9.242;2023-07-20T14:14:42;9.25;;;8.82;;
7255;SDS011;3669;49.200;9.242;2023-07-20T14:17:09;2.38;;;1.60;;
7255;SDS011;3669;49.200;9.242;2023-07-20T14:19:37;2.00;;;1.40;;
7255;SDS011;3669;49.200;9.242;2023-07-20T14:22:04;2.42;;;1.77;;
7255;SDS011;3669;49.200;9.242;2023-07-20T14:24:31;1.98;;;1.52;;
7255;SDS011;3669;49.200;9.242;2023-07-20T14:26:58;1.77;;;1.58;;
7255;SDS011;3669;49.200;9.242;2023-07-20T14:29:26;1.55;;;1.42;;
7255;SDS011;3669;49.200;9.242;2023-07-20T14:31:57;1.95;;;1.75;;
7255;SDS011;3669;49.200;9.242;2023-07-20T14:34:24;2.13;;;1.50;;
7255;SDS011;3669;49.200;9.242;2023-07-20T14:36:51;1.85;;;1.60;;
7255;SDS011;3669;49.200;9.242;2023-07-20T14:39:19;1.58;;;1.45;;
7255;SDS011;3669;49.200;9.242;2023-07-20T14:41:46;1.60;;;1.45;;
7255;SDS011;3669;49.200;9.242;2023-07-20T14:44:13;1.77;;;1.60;;
7255;SDS011;3669;49.200;9.242;2023-07-20T14:46:41;1.75;;;1.60;;
7255;SDS011;3669;49.200;9.242;2023-07-20T14:49:08;1.70;;;1.42;;
7255;SDS011;3669;49.200;9.242;2023-07-20T14:51:36;1.73;;;1.33;;
7255;SDS011;3669;49.200;9.242;2023-07-20T14:54:09;2.00;;;1.30;;
7255;SDS011;3669;49.200;9.242;2023-07-20T14:56:38;2.47;;;1.50;;
7255;SDS011;3669;49.200;9.242;2023-07-20T14:59:06;2.65;;;1.75;;
7255;SDS011;3669;49.200;9.242;2023-07-20T15:01:33;2.28;;;1.58;;
7255;SDS011;3669;49.200;9.242;2023-07-20T15:04:00;1.55;;;1.45;;
7255;SDS011;3669;49.200;9.242;2023-07-20T15:06:27;1.70;;;1.60;;
7255;SDS011;3669;49.200;9.242;2023-07-20T15:08:56;1.60;;;1.50;;
7255;SDS011;3669;49.200;9.242;2023-07-20T15:11:23;1.98;;;1.77;;
7255;SDS011;3669;49.200;9.242;2023-07-20T15:13:50;2.95;;;2.00;;
7255;SDS011;3669;49.200;9.242;2023-07-20T15:16:17;2.42;;;1.67;;
7255;SDS011;3669;49.200;9.242;2023-07-20T15:18:45;1.60;;;1.50;;
7255;SDS011;3669;49.200;9.242;2023-07-20T15:21:12;1.70;;;1.60;;
7255;SDS011;3669;49.200;9.242;2023-07-20T15:23:39;2.03;;;1.67;;
7255;SDS011;3669;49.200;9.242;2023-07-20T15:26:06;2.97;;;1.65;;
7255;SDS011;3669;49.200;9.242;2023-07-20T15:28:33;1.80;;;1.67;;
7255;SDS011;3669;49.200;9.242;2023-07-20T15:31:00;2.00;;;1.70;;
7255;SDS011;3669;49.200;9.242;2023-07-20T15:33:28;1.70;;;1.58;;